Terminal Aerodrome Forecast
Issued by NWS

Home | Current Version | Previous Version | Text Only | Print | Product List | Glossary On
Versions: 1 2 3 4 5 6 7 8 9 10 11 12 13 14 15
000
FTUS45 KABQ 272300
TAFAEG
TAF
KAEG 272340Z 2800/2824 06011KT P6SM SCT100 BKN150
     FM280200 12014G22KT P6SM SCT090 SCT150
     FM280600 12013KT P6SM VCSH SCT050 BKN080
     FM281100 02007KT P6SM FEW050 SCT090
     FM281700 15011KT P6SM SCT090 SCT150
     FM282300 13011KT P6SM VCTS BKN080CB BKN150=

USA.gov is the U.S. government's official web portal to all federal, state and local government web resources and services.